Castellbisbal, Spain
Current Conditions -  °F | °C
As of 11:30 AM on Thursday 27 Nov 2014 (Local Time) from LELL Reporting Station
Broken Clouds Broken Clouds  
Wind Chill: 54°   Ceiling: 3500
Heat Index: 54°   Visibility: 4mi
Dew Point: 52°   Wind: 5mph
Humidity: 94%   Direction: 200°SSW
Pressure: 29.77"   Gusts: NA
Location:  41.48°N, 1.98°E
Report Text: LELL 271030Z 20004KT 130V250 6000 FEW006 SCT015 BKN035 12/11 Q1008
Loading
Personal Weather Stations






























Interactive Weather Map New forecast layout! Learn more

10-Day Weather Forecast

Advertisements
Track Severe Weather on mobile